sensor_id;sensor_type;location;lat;lon;timestamp;pressure;altitude;pressure_sealevel;temperature;humidity
9421;BME280;4749;51.398;5.466;2022-11-02T00:00:29;101238.22;;;14.76;100.00
9421;BME280;4749;51.398;5.466;2022-11-02T00:02:56;101234.69;;;14.75;100.00
9421;BME280;4749;51.398;5.466;2022-11-02T00:05:23;101226.75;;;14.74;100.00
9421;BME280;4749;51.398;5.466;2022-11-02T00:07:52;101240.88;;;14.73;100.00
9421;BME280;4749;51.398;5.466;2022-11-02T00:10:21;101240.00;;;14.74;100.00
9421;BME280;4749;51.398;5.466;2022-11-02T00:12:49;101238.22;;;14.76;100.00
9421;BME280;4749;51.398;5.466;2022-11-02T00:15:17;101240.81;;;14.82;100.00
9421;BME280;4749;51.398;5.466;2022-11-02T00:17:48;101243.41;;;14.86;100.00
9421;BME280;4749;51.398;5.466;2022-11-02T00:20:18;101237.22;;;14.90;100.00
9421;BME280;4749;51.398;5.466;2022-11-02T00:22:48;101246.88;;;14.95;100.00
9421;BME280;4749;51.398;5.466;2022-11-02T00:25:18;101242.47;;;14.97;100.00
9421;BME280;4749;51.398;5.466;2022-11-02T00:27:46;101238.03;;;14.97;100.00
9421;BME280;4749;51.398;5.466;2022-11-02T00:30:14;101241.53;;;14.99;100.00
9421;BME280;4749;51.398;5.466;2022-11-02T00:32:41;101251.25;;;15.00;100.00
9421;BME280;4749;51.398;5.466;2022-11-02T00:35:08;101237.13;;;15.00;100.00
9421;BME280;4749;51.398;5.466;2022-11-02T00:37:36;101240.69;;;14.96;100.00
9421;BME280;4749;51.398;5.466;2022-11-02T00:40:04;101233.72;;;14.85;100.00
9421;BME280;4749;51.398;5.466;2022-11-02T00:42:31;101238.00;;;15.00;100.00
9421;BME280;4749;51.398;5.466;2022-11-02T00:44:58;101246.78;;;15.04;100.00
9421;BME280;4749;51.398;5.466;2022-11-02T00:47:25;101251.19;;;15.03;100.00
9421;BME280;4749;51.398;5.466;2022-11-02T00:49:53;101252.09;;;15.01;100.00
9421;BME280;4749;51.398;5.466;2022-11-02T00:52:20;101252.13;;;14.99;100.00
9421;BME280;4749;51.398;5.466;2022-11-02T00:54:47;101250.38;;;15.00;100.00
9421;BME280;4749;51.398;5.466;2022-11-02T00:57:14;101260.09;;;14.96;100.00
9421;BME280;4749;51.398;5.466;2022-11-02T00:59:41;101257.44;;;14.96;100.00
9421;BME280;4749;51.398;5.466;2022-11-02T01:02:08;101257.47;;;14.93;100.00
9421;BME280;4749;51.398;5.466;2022-11-02T01:04:35;101259.25;;;14.88;100.00
9421;BME280;4749;51.398;5.466;2022-11-02T01:07:03;101272.53;;;14.85;100.00
9421;BME280;4749;51.398;5.466;2022-11-02T01:09:30;101269.94;;;14.82;100.00
9421;BME280;4749;51.398;5.466;2022-11-02T01:11:57;101284.97;;;14.75;100.00
9421;BME280;4749;51.398;5.466;2022-11-02T01:14:24;101275.31;;;14.68;100.00
9421;BME280;4749;51.398;5.466;2022-11-02T01:16:51;101279.75;;;14.64;100.00
9421;BME280;4749;51.398;5.466;2022-11-02T01:19:18;101284.19;;;14.61;100.00
9421;BME280;4749;51.398;5.466;2022-11-02T01:21:45;101268.34;;;14.56;100.00
9421;BME280;4749;51.398;5.466;2022-11-02T01:24:12;101282.50;;;14.51;100.00
9421;BME280;4749;51.398;5.466;2022-11-02T01:26:39;101283.41;;;14.47;100.00
9421;BME280;4749;51.398;5.466;2022-11-02T01:29:06;101286.03;;;14.44;100.00
9421;BME280;4749;51.398;5.466;2022-11-02T01:31:33;101290.44;;;14.43;100.00
9421;BME280;4749;51.398;5.466;2022-11-02T01:34:00;101298.41;;;14.40;100.00
9421;BME280;4749;51.398;5.466;2022-11-02T01:36:27;101285.19;;;14.39;100.00
9421;BME280;4749;51.398;5.466;2022-11-02T01:38:55;101289.59;;;14.35;100.00
9421;BME280;4749;51.398;5.466;2022-11-02T01:41:22;101290.50;;;14.32;100.00
9421;BME280;4749;51.398;5.466;2022-11-02T01:43:53;101286.13;;;14.28;100.00
9421;BME280;4749;51.398;5.466;2022-11-02T01:46:43;101284.38;;;14.26;100.00
9421;BME280;4749;51.398;5.466;2022-11-02T01:49:17;101288.81;;;14.22;100.00
9421;BME280;4749;51.398;5.466;2022-11-02T01:52:07;101293.22;;;14.17;100.00
9421;BME280;4749;51.398;5.466;2022-11-02T01:54:44;101303.84;;;14.14;100.00
9421;BME280;4749;51.398;5.466;2022-11-02T01:57:19;101302.06;;;14.15;100.00
9421;BME280;4749;51.398;5.466;2022-11-02T01:59:59;101302.06;;;14.16;100.00
9421;BME280;4749;51.398;5.466;2022-11-02T02:02:29;101309.13;;;14.14;100.00
9421;BME280;4749;51.398;5.466;2022-11-02T02:05:09;101306.50;;;14.13;100.00
9421;BME280;4749;51.398;5.466;2022-11-02T02:07:39;101301.19;;;14.09;100.00
9421;BME280;4749;51.398;5.466;2022-11-02T02:10:08;101306.50;;;14.09;100.00
9421;BME280;4749;51.398;5.466;2022-11-02T02:12:40;101309.16;;;14.08;100.00
9421;BME280;4749;51.398;5.466;2022-11-02T02:15:11;101303.00;;;14.06;100.00
9421;BME280;4749;51.398;5.466;2022-11-02T02:20:49;101309.19;;;13.99;100.00
9421;BME280;4749;51.398;5.466;2022-11-02T02:27:11;101309.22;;;13.88;100.00
9421;BME280;4749;51.398;5.466;2022-11-02T02:30:15;101312.72;;;13.87;100.00
9421;BME280;4749;51.398;5.466;2022-11-02T02:32:57;101310.97;;;13.86;100.00
9421;BME280;4749;51.398;5.466;2022-11-02T02:35:32;101304.81;;;13.86;100.00
9421;BME280;4749;51.398;5.466;2022-11-02T02:38:10;101314.53;;;13.84;100.00
9421;BME280;4749;51.398;5.466;2022-11-02T02:40:58;101320.66;;;13.86;100.00
9421;BME280;4749;51.398;5.466;2022-11-02T02:43:36;101313.63;;;13.83;100.00
9421;BME280;4749;51.398;5.466;2022-11-02T02:48:45;101315.41;;;13.81;100.00
9421;BME280;4749;51.398;5.466;2022-11-02T02:51:33;101319.84;;;13.79;100.00
9421;BME280;4749;51.398;5.466;2022-11-02T02:54:09;101319.84;;;13.79;100.00
9421;BME280;4749;51.398;5.466;2022-11-02T02:56:45;101313.63;;;13.78;100.00
9421;BME280;4749;51.398;5.466;2022-11-02T02:59:26;101315.41;;;13.78;100.00
9421;BME280;4749;51.398;5.466;2022-11-02T03:01:55;101317.19;;;13.79;100.00
9421;BME280;4749;51.398;5.466;2022-11-02T03:04:23;101339.19;;;13.78;100.00
9421;BME280;4749;51.398;5.466;2022-11-02T03:06:56;101336.56;;;13.76;100.00
9421;BME280;4749;51.398;5.466;2022-11-02T03:15:16;101337.44;;;13.77;100.00
9421;BME280;4749;51.398;5.466;2022-11-02T03:23:17;101333.06;;;13.71;100.00
9421;BME280;4749;51.398;5.466;2022-11-02T03:29:02;101351.53;;;13.70;100.00
9421;BME280;4749;51.398;5.466;2022-11-02T03:31:42;101354.22;;;13.65;100.00
9421;BME280;4749;51.398;5.466;2022-11-02T03:34:34;101360.38;;;13.67;100.00
9421;BME280;4749;51.398;5.466;2022-11-02T03:37:43;101363.00;;;13.66;100.00
9421;BME280;4749;51.398;5.466;2022-11-02T03:40:28;101365.66;;;13.64;100.00
9421;BME280;4749;51.398;5.466;2022-11-02T03:42:58;101370.94;;;13.66;100.00
9421;BME280;4749;51.398;5.466;2022-11-02T03:45:38;101378.84;;;13.67;100.00
9421;BME280;4749;51.398;5.466;2022-11-02T03:48:10;101373.56;;;13.69;100.00
9421;BME280;4749;51.398;5.466;2022-11-02T03:50:44;101378.84;;;13.70;100.00
9421;BME280;4749;51.398;5.466;2022-11-02T03:53:30;101373.56;;;13.69;100.00
9421;BME280;4749;51.398;5.466;2022-11-02T03:56:07;101380.63;;;13.59;100.00
9421;BME280;4749;51.398;5.466;2022-11-02T03:58:35;101370.06;;;13.53;100.00
9421;BME280;4749;51.398;5.466;2022-11-02T04:01:05;101378.03;;;13.45;100.00
9421;BME280;4749;51.398;5.466;2022-11-02T04:03:40;101378.88;;;13.37;100.00
9421;BME280;4749;51.398;5.466;2022-11-02T04:06:09;101389.47;;;13.32;100.00
9421;BME280;4749;51.398;5.466;2022-11-02T04:08:47;101404.44;;;13.30;100.00
9421;BME280;4749;51.398;5.466;2022-11-02T04:11:15;101406.16;;;13.28;100.00
9421;BME280;4749;51.398;5.466;2022-11-02T04:14:15;101408.81;;;13.28;100.00
9421;BME280;4749;51.398;5.466;2022-11-02T04:17:01;101406.16;;;13.28;100.00
9421;BME280;4749;51.398;5.466;2022-11-02T04:19:50;101412.34;;;13.29;100.00
9421;BME280;4749;51.398;5.466;2022-11-02T04:22:18;101411.44;;;13.28;100.00
9421;BME280;4749;51.398;5.466;2022-11-02T04:25:10;101417.59;;;13.27;100.00
9421;BME280;4749;51.398;5.466;2022-11-02T04:27:46;101419.38;;;13.27;100.00
9421;BME280;4749;51.398;5.466;2022-11-02T04:30:19;101433.44;;;13.27;100.00
9421;BME280;4749;51.398;5.466;2022-11-02T04:32:49;101428.19;;;13.24;100.00
9421;BME280;4749;51.398;5.466;2022-11-02T04:35:36;101434.34;;;13.23;100.00
9421;BME280;4749;51.398;5.466;2022-11-02T04:38:04;101437.88;;;13.22;100.00
9421;BME280;4749;51.398;5.466;2022-11-02T04:40:49;101442.22;;;13.18;100.00
9421;BME280;4749;51.398;5.466;2022-11-02T04:43:36;101445.72;;;13.19;100.00
9421;BME280;4749;51.398;5.466;2022-11-02T04:46:04;101451.00;;;13.17;100.00
9421;BME280;4749;51.398;5.466;2022-11-02T04:48:31;101452.78;;;13.14;100.00
9421;BME280;4749;51.398;5.466;2022-11-02T04:50:58;101475.66;;;13.15;100.00
9421;BME280;4749;51.398;5.466;2022-11-02T04:53:25;101462.47;;;13.13;100.00
9421;BME280;4749;51.398;5.466;2022-11-02T04:55:52;101473.03;;;13.13;100.00
9421;BME280;4749;51.398;5.466;2022-11-02T04:58:19;101472.16;;;13.13;100.00
9421;BME280;4749;51.398;5.466;2022-11-02T05:00:46;101476.50;;;13.11;100.00
9421;BME280;4749;51.398;5.466;2022-11-02T05:03:13;101483.56;;;13.09;100.00
9421;BME280;4749;51.398;5.466;2022-11-02T05:05:40;101487.06;;;13.09;100.00
9421;BME280;4749;51.398;5.466;2022-11-02T05:08:07;101495.91;;;13.14;100.00
9421;BME280;4749;51.398;5.466;2022-11-02T05:10:34;101502.06;;;13.18;100.00
9421;BME280;4749;51.398;5.466;2022-11-02T05:13:01;101497.69;;;13.20;100.00
9421;BME280;4749;51.398;5.466;2022-11-02T05:15:28;101505.63;;;13.23;100.00
9421;BME280;4749;51.398;5.466;2022-11-02T05:17:56;101502.09;;;13.27;100.00
9421;BME280;4749;51.398;5.466;2022-11-02T05:20:23;101513.56;;;13.32;100.00
9421;BME280;4749;51.398;5.466;2022-11-02T05:22:50;101519.72;;;13.34;100.00
9421;BME280;4749;51.398;5.466;2022-11-02T05:25:17;101520.63;;;13.38;100.00
9421;BME280;4749;51.398;5.466;2022-11-02T05:27:44;101532.06;;;13.40;100.00
9421;BME280;4749;51.398;5.466;2022-11-02T05:30:12;101523.28;;;13.41;100.00
9421;BME280;4749;51.398;5.466;2022-11-02T05:32:39;101530.31;;;13.40;100.00
9421;BME280;4749;51.398;5.466;2022-11-02T05:35:07;101532.06;;;13.40;100.00
9421;BME280;4749;51.398;5.466;2022-11-02T05:37:34;101540.84;;;13.36;100.00
9421;BME280;4749;51.398;5.466;2022-11-02T05:40:01;101555.84;;;13.31;100.00
9421;BME280;4749;51.398;5.466;2022-11-02T05:42:28;101562.84;;;13.26;100.00
9421;BME280;4749;51.398;5.466;2022-11-02T05:44:55;101561.09;;;13.21;100.00
9421;BME280;4749;51.398;5.466;2022-11-02T05:47:22;101559.25;;;13.19;100.00
9421;BME280;4749;51.398;5.466;2022-11-02T05:49:49;101562.78;;;13.15;100.00
9421;BME280;4749;51.398;5.466;2022-11-02T05:52:16;101570.69;;;13.12;100.00
9421;BME280;4749;51.398;5.466;2022-11-02T05:54:43;101557.47;;;13.07;100.00
9421;BME280;4749;51.398;5.466;2022-11-02T05:57:10;101574.19;;;13.05;100.00
9421;BME280;4749;51.398;5.466;2022-11-02T05:59:37;101574.16;;;13.02;100.00
9421;BME280;4749;51.398;5.466;2022-11-02T06:02:04;101582.97;;;12.98;100.00
9421;BME280;4749;51.398;5.466;2022-11-02T06:04:31;101597.88;;;12.94;100.00
9421;BME280;4749;51.398;5.466;2022-11-02T06:06:58;101590.84;;;12.88;100.00
9421;BME280;4749;51.398;5.466;2022-11-02T06:09:25;101593.47;;;12.87;100.00
9421;BME280;4749;51.398;5.466;2022-11-02T06:11:55;101601.34;;;12.85;100.00
9421;BME280;4749;51.398;5.466;2022-11-02T06:14:22;101603.09;;;12.82;100.00
9421;BME280;4749;51.398;5.466;2022-11-02T06:16:49;101611.91;;;12.79;100.00
9421;BME280;4749;51.398;5.466;2022-11-02T06:19:16;101611.91;;;12.79;100.00
9421;BME280;4749;51.398;5.466;2022-11-02T06:21:43;101628.56;;;12.75;100.00
9421;BME280;4749;51.398;5.466;2022-11-02T06:24:14;101621.53;;;12.71;100.00
9421;BME280;4749;51.398;5.466;2022-11-02T06:26:41;101627.63;;;12.68;100.00
9421;BME280;4749;51.398;5.466;2022-11-02T06:29:08;101625.88;;;12.69;100.00
9421;BME280;4749;51.398;5.466;2022-11-02T06:31:35;101618.84;;;12.66;100.00
9421;BME280;4749;51.398;5.466;2022-11-02T06:34:03;101626.75;;;12.63;100.00
9421;BME280;4749;51.398;5.466;2022-11-02T06:36:30;101649.59;;;12.63;100.00
9421;BME280;4749;51.398;5.466;2022-11-02T06:38:57;101650.47;;;12.62;100.00
9421;BME280;4749;51.398;5.466;2022-11-02T06:41:24;101655.72;;;12.59;100.00
9421;BME280;4749;51.398;5.466;2022-11-02T06:43:51;101659.22;;;12.58;100.00
9421;BME280;4749;51.398;5.466;2022-11-02T06:46:18;101661.88;;;12.58;100.00
9421;BME280;4749;51.398;5.466;2022-11-02T06:48:46;101672.44;;;12.59;100.00
9421;BME280;4749;51.398;5.466;2022-11-02T06:51:14;101669.78;;;12.58;100.00
9421;BME280;4749;51.398;5.466;2022-11-02T06:53:41;101690.00;;;12.57;100.00
9421;BME280;4749;51.398;5.466;2022-11-02T06:56:08;101692.63;;;12.56;100.00
9421;BME280;4749;51.398;5.466;2022-11-02T06:58:35;101695.28;;;12.57;100.00
9421;BME280;4749;51.398;5.466;2022-11-02T07:01:06;101709.34;;;12.59;100.00
9421;BME280;4749;51.398;5.466;2022-11-02T07:03:34;101715.56;;;12.63;100.00
9421;BME280;4749;51.398;5.466;2022-11-02T07:06:02;101709.41;;;12.64;100.00
9421;BME280;4749;51.398;5.466;2022-11-02T07:08:33;101726.13;;;12.67;100.00
9421;BME280;4749;51.398;5.466;2022-11-02T07:11:00;101724.41;;;12.70;100.00
9421;BME280;4749;51.398;5.466;2022-11-02T07:13:27;101734.97;;;12.74;100.00
9421;BME280;4749;51.398;5.466;2022-11-02T07:15:55;101742.03;;;12.75;100.00
9421;BME280;4749;51.398;5.466;2022-11-02T07:18:22;101760.53;;;12.78;100.00
9421;BME280;4749;51.398;5.466;2022-11-02T07:20:49;101753.50;;;12.79;100.00
9421;BME280;4749;51.398;5.466;2022-11-02T07:23:17;101758.78;;;12.82;100.00
9421;BME280;4749;51.398;5.466;2022-11-02T07:25:44;101768.47;;;12.84;100.00
9421;BME280;4749;51.398;5.466;2022-11-02T07:28:11;101772.94;;;12.88;100.00
9421;BME280;4749;51.398;5.466;2022-11-02T07:30:47;101770.31;;;12.90;100.00
9421;BME280;4749;51.398;5.466;2022-11-02T07:33:15;101775.59;;;12.93;100.00
9421;BME280;4749;51.398;5.466;2022-11-02T07:35:45;101773.81;;;12.92;100.00
9421;BME280;4749;51.398;5.466;2022-11-02T07:38:12;101778.25;;;12.94;100.00
9421;BME280;4749;51.398;5.466;2022-11-02T07:40:42;101780.94;;;13.01;100.00
9421;BME280;4749;51.398;5.466;2022-11-02T07:43:09;101782.75;;;13.06;100.00
9421;BME280;4749;51.398;5.466;2022-11-02T07:45:37;101788.03;;;13.09;100.00
9421;BME280;4749;51.398;5.466;2022-11-02T07:48:05;101788.97;;;13.14;100.00
9421;BME280;4749;51.398;5.466;2022-11-02T07:50:32;101792.50;;;13.18;100.00
9421;BME280;4749;51.398;5.466;2022-11-02T07:53:00;101798.75;;;13.24;100.00
9421;BME280;4749;51.398;5.466;2022-11-02T07:55:29;101799.69;;;13.31;100.00
9421;BME280;4749;51.398;5.466;2022-11-02T07:58:04;101806.78;;;13.38;100.00
9421;BME280;4749;51.398;5.466;2022-11-02T08:00:37;101810.31;;;13.43;100.00
9421;BME280;4749;51.398;5.466;2022-11-02T08:03:07;101808.59;;;13.47;100.00
9421;BME280;4749;51.398;5.466;2022-11-02T08:05:38;101813.88;;;13.45;100.00
9421;BME280;4749;51.398;5.466;2022-11-02T08:08:13;101813.00;;;13.49;100.00
9421;BME280;4749;51.398;5.466;2022-11-02T08:10:42;101809.50;;;13.55;100.00
9421;BME280;4749;51.398;5.466;2022-11-02T08:13:19;101818.28;;;13.49;100.00
9421;BME280;4749;51.398;5.466;2022-11-02T08:15:50;101815.69;;;13.57;100.00
9421;BME280;4749;51.398;5.466;2022-11-02T08:18:21;101813.03;;;13.57;100.00
9421;BME280;4749;51.398;5.466;2022-11-02T08:20:51;101820.09;;;13.61;100.00
9421;BME280;4749;51.398;5.466;2022-11-02T08:23:19;101820.13;;;13.67;100.00
9421;BME280;4749;51.398;5.466;2022-11-02T08:25:49;101827.22;;;13.74;100.00
9421;BME280;4749;51.398;5.466;2022-11-02T08:28:29;101843.13;;;13.82;100.00
9421;BME280;4749;51.398;5.466;2022-11-02T08:31:14;101839.59;;;13.83;100.00
9421;BME280;4749;51.398;5.466;2022-11-02T08:33:43;101836.97;;;13.86;100.00
9421;BME280;4749;51.398;5.466;2022-11-02T08:36:13;101838.78;;;13.93;100.00
9421;BME280;4749;51.398;5.466;2022-11-02T08:38:40;101854.66;;;13.96;100.00
9421;BME280;4749;51.398;5.466;2022-11-02T08:41:08;101838.81;;;14.01;100.00
9421;BME280;4749;51.398;5.466;2022-11-02T08:43:35;101836.16;;;14.04;100.00
9421;BME280;4749;51.398;5.466;2022-11-02T08:46:03;101841.47;;;14.12;100.00
9421;BME280;4749;51.398;5.466;2022-11-02T08:48:45;101841.50;;;14.18;100.00
9421;BME280;4749;51.398;5.466;2022-11-02T08:51:16;101845.06;;;14.23;100.00
9421;BME280;4749;51.398;5.466;2022-11-02T08:53:44;101850.38;;;14.27;100.00
9421;BME280;4749;51.398;5.466;2022-11-02T08:56:18;101841.56;;;14.30;100.00
9421;BME280;4749;51.398;5.466;2022-11-02T08:58:48;101856.56;;;14.34;100.00
9421;BME280;4749;51.398;5.466;2022-11-02T09:01:17;101846.00;;;14.40;100.00
9421;BME280;4749;51.398;5.466;2022-11-02T09:03:44;101857.47;;;14.42;100.00
9421;BME280;4749;51.398;5.466;2022-11-02T09:06:11;101846.06;;;14.48;100.00
9421;BME280;4749;51.398;5.466;2022-11-02T09:08:38;101859.28;;;14.52;100.00
9421;BME280;4749;51.398;5.466;2022-11-02T09:11:05;101854.91;;;14.57;100.00
9421;BME280;4749;51.398;5.466;2022-11-02T09:13:33;101854.91;;;14.60;100.00
9421;BME280;4749;51.398;5.466;2022-11-02T09:16:00;101858.44;;;14.66;100.00
9421;BME280;4749;51.398;5.466;2022-11-02T09:18:28;101856.69;;;14.68;100.00
9421;BME280;4749;51.398;5.466;2022-11-02T09:21:00;101869.06;;;14.72;100.00
9421;BME280;4749;51.398;5.466;2022-11-02T09:23:27;101871.72;;;14.72;100.00
9421;BME280;4749;51.398;5.466;2022-11-02T09:25:54;101862.00;;;14.74;100.00
9421;BME280;4749;51.398;5.466;2022-11-02T09:28:21;101869.94;;;14.77;100.00
9421;BME280;4749;51.398;5.466;2022-11-02T09:30:48;101880.53;;;14.86;100.00
9421;BME280;4749;51.398;5.466;2022-11-02T09:33:16;101877.03;;;14.90;100.00
9421;BME280;4749;51.398;5.466;2022-11-02T09:35:46;101878.78;;;14.92;100.00
9421;BME280;4749;51.398;5.466;2022-11-02T09:38:15;101869.97;;;14.92;100.00
9421;BME280;4749;51.398;5.466;2022-11-02T09:46:45;101891.16;;;15.10;100.00
9421;BME280;4749;51.398;5.466;2022-11-02T09:49:19;101891.19;;;15.13;100.00
9421;BME280;4749;51.398;5.466;2022-11-02T09:51:54;101883.22;;;15.16;100.00
9421;BME280;4749;51.398;5.466;2022-11-02T09:54:33;101889.41;;;15.18;100.00
9421;BME280;4749;51.398;5.466;2022-11-02T09:57:10;101893.81;;;15.23;100.00
9421;BME280;4749;51.398;5.466;2022-11-02T09:59:40;101896.44;;;15.21;100.00
9421;BME280;4749;51.398;5.466;2022-11-02T10:14:09;101903.53;;;15.33;100.00
9421;BME280;4749;51.398;5.466;2022-11-02T10:16:58;101920.31;;;15.39;100.00
9421;BME280;4749;51.398;5.466;2022-11-02T10:19:27;101917.66;;;15.39;100.00
9421;BME280;4749;51.398;5.466;2022-11-02T10:21:57;101916.78;;;15.39;100.00
9421;BME280;4749;51.398;5.466;2022-11-02T10:24:37;101936.19;;;15.44;100.00
9421;BME280;4749;51.398;5.466;2022-11-02T10:27:28;101922.94;;;15.45;100.00
9421;BME280;4749;51.398;5.466;2022-11-02T10:30:12;101936.22;;;15.48;100.00
9421;BME280;4749;51.398;5.466;2022-11-02T10:32:41;101937.09;;;15.51;100.00
9421;BME280;4749;51.398;5.466;2022-11-02T10:41:52;101929.16;;;15.67;100.00
9421;BME280;4749;51.398;5.466;2022-11-02T10:47:38;101930.03;;;15.71;100.00
9421;BME280;4749;51.398;5.466;2022-11-02T10:50:51;101934.44;;;15.78;100.00
9421;BME280;4749;51.398;5.466;2022-11-02T10:53:20;101934.47;;;15.81;100.00
9421;BME280;4749;51.398;5.466;2022-11-02T10:59:10;101945.03;;;15.87;100.00
9421;BME280;4749;51.398;5.466;2022-11-02T11:04:27;101955.63;;;15.92;100.00
9421;BME280;4749;51.398;5.466;2022-11-02T11:06:55;101952.09;;;15.93;100.00
9421;BME280;4749;51.398;5.466;2022-11-02T11:09:33;101942.34;;;15.96;100.00
9421;BME280;4749;51.398;5.466;2022-11-02T11:12:16;101952.09;;;15.99;100.00
9421;BME280;4749;51.398;5.466;2022-11-02T11:14:56;101952.09;;;16.00;100.00
9421;BME280;4749;51.398;5.466;2022-11-02T11:17:44;101949.44;;;16.00;100.00
9421;BME280;4749;51.398;5.466;2022-11-02T11:20:35;101952.06;;;16.02;100.00
9421;BME280;4749;51.398;5.466;2022-11-02T11:23:26;101947.66;;;16.04;100.00
9421;BME280;4749;51.398;5.466;2022-11-02T11:26:00;101956.47;;;16.11;100.00
9421;BME280;4749;51.398;5.466;2022-11-02T11:28:38;101952.94;;;16.16;100.00
9421;BME280;4749;51.398;5.466;2022-11-02T11:31:15;101954.69;;;16.20;100.00
9421;BME280;4749;51.398;5.466;2022-11-02T11:33:47;101950.25;;;16.22;100.00
9421;BME280;4749;51.398;5.466;2022-11-02T11:36:31;101944.09;;;16.05;100.00
9421;BME280;4749;51.398;5.466;2022-11-02T11:39:03;101943.22;;;16.03;100.00
9421;BME280;4749;51.398;5.466;2022-11-02T11:41:32;101944.97;;;16.18;100.00
9421;BME280;4749;51.398;5.466;2022-11-02T11:44:01;101918.38;;;16.30;100.00
9421;BME280;4749;51.398;5.466;2022-11-02T11:46:44;101927.19;;;16.37;100.00
9421;BME280;4749;51.398;5.466;2022-11-02T11:49:31;101928.16;;;16.20;100.00
9421;BME280;4749;51.398;5.466;2022-11-02T11:52:24;101935.22;;;16.26;100.00
9421;BME280;4749;51.398;5.466;2022-11-02T11:55:00;101934.31;;;16.28;100.00
9421;BME280;4749;51.398;5.466;2022-11-02T11:57:34;101936.06;;;16.31;100.00
9421;BME280;4749;51.398;5.466;2022-11-02T12:00:26;101942.22;;;16.42;100.00
9421;BME280;4749;51.398;5.466;2022-11-02T12:03:09;101940.47;;;16.43;100.00
9421;BME280;4749;51.398;5.466;2022-11-02T12:06:19;101937.75;;;16.56;100.00
9421;BME280;4749;51.398;5.466;2022-11-02T12:21:37;101911.06;;;16.84;100.00
9421;BME280;4749;51.398;5.466;2022-11-02T12:24:38;101894.31;;;16.76;100.00
9421;BME280;4749;51.398;5.466;2022-11-02T12:30:20;101892.38;;;16.99;100.00
9421;BME280;4749;51.398;5.466;2022-11-02T12:36:18;101894.97;;;17.07;100.00
9421;BME280;4749;51.398;5.466;2022-11-02T12:39:07;101882.78;;;16.78;100.00
9421;BME280;4749;51.398;5.466;2022-11-02T12:44:54;101883.50;;;17.02;100.00
9421;BME280;4749;51.398;5.466;2022-11-02T12:56:03;101886.53;;;17.60;100.00
9421;BME280;4749;51.398;5.466;2022-11-02T12:58:36;101887.34;;;17.68;100.00
9421;BME280;4749;51.398;5.466;2022-11-02T13:01:29;101884.66;;;17.75;100.00
9421;BME280;4749;51.398;5.466;2022-11-02T13:04:12;101880.03;;;17.92;100.00
9421;BME280;4749;51.398;5.466;2022-11-02T13:06:49;101867.56;;;17.95;100.00
9421;BME280;4749;51.398;5.466;2022-11-02T13:09:30;101881.47;;;18.20;100.00
9421;BME280;4749;51.398;5.466;2022-11-02T13:12:06;101875.97;;;18.34;100.00
9421;BME280;4749;51.398;5.466;2022-11-02T13:14:45;101877.97;;;18.14;100.00
9421;BME280;4749;51.398;5.466;2022-11-02T13:17:39;101873.94;;;17.79;100.00
9421;BME280;4749;51.398;5.466;2022-11-02T13:22:41;101860.31;;;17.21;100.00
9421;BME280;4749;51.398;5.466;2022-11-02T13:25:36;101857.66;;;17.21;100.00
9421;BME280;4749;51.398;5.466;2022-11-02T13:28:11;101853.84;;;17.51;100.00
9421;BME280;4749;51.398;5.466;2022-11-02T13:30:40;101844.75;;;17.76;100.00
9421;BME280;4749;51.398;5.466;2022-11-02T13:33:36;101853.66;;;17.69;100.00
9421;BME280;4749;51.398;5.466;2022-11-02T13:36:06;101850.22;;;17.58;100.00
9421;BME280;4749;51.398;5.466;2022-11-02T13:38:40;101842.34;;;17.45;100.00
9421;BME280;4749;51.398;5.466;2022-11-02T13:47:43;101836.38;;;17.22;100.00
9421;BME280;4749;51.398;5.466;2022-11-02T13:50:16;101842.72;;;17.09;100.00
9421;BME280;4749;51.398;5.466;2022-11-02T13:52:50;101827.59;;;17.17;100.00
9421;BME280;4749;51.398;5.466;2022-11-02T13:55:54;101841.59;;;17.31;100.00
9421;BME280;4749;51.398;5.466;2022-11-02T13:58:36;101839.53;;;17.62;100.00
9421;BME280;4749;51.398;5.466;2022-11-02T14:01:07;101833.13;;;17.82;100.00
9421;BME280;4749;51.398;5.466;2022-11-02T14:03:56;101828.97;;;17.58;100.00
9421;BME280;4749;51.398;5.466;2022-11-02T14:06:31;101833.66;;;17.28;100.00
9421;BME280;4749;51.398;5.466;2022-11-02T14:09:04;101831.06;;;17.24;100.00
9421;BME280;4749;51.398;5.466;2022-11-02T14:11:45;101823.09;;;17.22;100.00
9421;BME280;4749;51.398;5.466;2022-11-02T14:14:22;101823.00;;;17.33;100.00
9421;BME280;4749;51.398;5.466;2022-11-02T14:46:18;101803.44;;;16.25;100.00
9421;BME280;4749;51.398;5.466;2022-11-02T14:48:51;101798.19;;;16.16;100.00
9421;BME280;4749;51.398;5.466;2022-11-02T14:54:03;101787.56;;;16.16;100.00
9421;BME280;4749;51.398;5.466;2022-11-02T14:59:38;101788.53;;;15.95;100.00
9421;BME280;4749;51.398;5.466;2022-11-02T15:04:57;101791.28;;;15.70;100.00
9421;BME280;4749;51.398;5.466;2022-11-02T15:07:47;101785.13;;;15.65;100.00
9421;BME280;4749;51.398;5.466;2022-11-02T15:12:48;101782.47;;;15.55;100.00
9421;BME280;4749;51.398;5.466;2022-11-02T15:15:35;101773.66;;;15.49;100.00
9421;BME280;4749;51.398;5.466;2022-11-02T15:24:11;101746.31;;;15.34;100.00
9421;BME280;4749;51.398;5.466;2022-11-02T15:26:50;101744.56;;;15.27;100.00
9421;BME280;4749;51.398;5.466;2022-11-02T15:29:47;101741.03;;;15.21;100.00
9421;BME280;4749;51.398;5.466;2022-11-02T15:32:22;101749.00;;;15.17;100.00
9421;BME280;4749;51.398;5.466;2022-11-02T15:34:53;101747.25;;;15.11;100.00
9421;BME280;4749;51.398;5.466;2022-11-02T15:37:28;101742.84;;;15.07;100.00
9421;BME280;4749;51.398;5.466;2022-11-02T15:39:58;101739.31;;;15.01;100.00
9421;BME280;4749;51.398;5.466;2022-11-02T15:45:35;101742.88;;;14.92;100.00
9421;BME280;4749;51.398;5.466;2022-11-02T15:54:46;101736.72;;;14.66;100.00
9421;BME280;4749;51.398;5.466;2022-11-02T16:00:41;101738.44;;;14.45;100.00
9421;BME280;4749;51.398;5.466;2022-11-02T16:03:09;101731.38;;;14.40;100.00
9421;BME280;4749;51.398;5.466;2022-11-02T16:05:44;101731.34;;;14.35;100.00
9421;BME280;4749;51.398;5.466;2022-11-02T16:08:33;101721.63;;;14.26;100.00